sensor_id;sensor_type;location;lat;lon;timestamp;pressure;altitude;pressure_sealevel;temperature;humidity
38780;BME280;29273;49.962;9.768;2022-09-09T00:00:17;99355.78;;;18.89;51.84
38780;BME280;29273;49.962;9.768;2022-09-09T00:03:02;99355.22;;;18.86;51.90
38780;BME280;29273;49.962;9.768;2022-09-09T00:08:19;99351.44;;;18.82;52.09
38780;BME280;29273;49.962;9.768;2022-09-09T00:10:52;99357.34;;;18.79;52.53
38780;BME280;29273;49.962;9.768;2022-09-09T00:13:30;99366.47;;;18.78;52.42
38780;BME280;29273;49.962;9.768;2022-09-09T00:21:18;99355.19;;;18.66;54.21
38780;BME280;29273;49.962;9.768;2022-09-09T00:23:50;99349.56;;;18.73;53.00
38780;BME280;29273;49.962;9.768;2022-09-09T00:26:38;99349.28;;;18.74;52.78
38780;BME280;29273;49.962;9.768;2022-09-09T00:31:38;99357.34;;;18.69;54.41
38780;BME280;29273;49.962;9.768;2022-09-09T00:34:22;99346.63;;;18.74;52.79
38780;BME280;29273;49.962;9.768;2022-09-09T00:36:50;99342.03;;;18.75;53.93
38780;BME280;29273;49.962;9.768;2022-09-09T00:39:39;99340.97;;;18.76;52.75
38780;BME280;29273;49.962;9.768;2022-09-09T00:44:39;99340.16;;;18.60;52.88
38780;BME280;29273;49.962;9.768;2022-09-09T00:47:39;99335.09;;;18.79;52.94
38780;BME280;29273;49.962;9.768;2022-09-09T00:50:17;99331.31;;;18.80;53.63
38780;BME280;29273;49.962;9.768;2022-09-09T00:53:05;99329.47;;;18.75;54.77
38780;BME280;29273;49.962;9.768;2022-09-09T00:58:10;99319.78;;;18.74;54.48
38780;BME280;29273;49.962;9.768;2022-09-09T01:01:07;99331.31;;;18.75;52.81
38780;BME280;29273;49.962;9.768;2022-09-09T01:03:35;99332.16;;;18.75;54.54
38780;BME280;29273;49.962;9.768;2022-09-09T01:14:22;99333.72;;;18.76;53.34
38780;BME280;29273;49.962;9.768;2022-09-09T01:16:57;99334.81;;;18.75;53.36
38780;BME280;29273;49.962;9.768;2022-09-09T01:19:40;99333.19;;;18.74;53.13
38780;BME280;29273;49.962;9.768;2022-09-09T01:25:19;99347.13;;;18.45;52.66
38780;BME280;29273;49.962;9.768;2022-09-09T01:28:29;99336.94;;;18.58;52.74
38780;BME280;29273;49.962;9.768;2022-09-09T01:31:01;99336.91;;;18.37;52.76
38780;BME280;29273;49.962;9.768;2022-09-09T01:33:33;99324.56;;;18.46;54.84
38780;BME280;29273;49.962;9.768;2022-09-09T01:36:06;99331.56;;;18.53;53.86
38780;BME280;29273;49.962;9.768;2022-09-09T01:38:40;99319.47;;;18.45;55.03
38780;BME280;29273;49.962;9.768;2022-09-09T01:41:05;99327.25;;;18.46;55.21
38780;BME280;29273;49.962;9.768;2022-09-09T01:43:42;99327.25;;;18.46;55.51
38780;BME280;29273;49.962;9.768;2022-09-09T01:46:09;99323.50;;;18.47;55.00
38780;BME280;29273;49.962;9.768;2022-09-09T01:48:36;99329.94;;;18.46;55.23
38780;BME280;29273;49.962;9.768;2022-09-09T01:51:05;99325.66;;;18.45;55.49
38780;BME280;29273;49.962;9.768;2022-09-09T01:53:30;99331.81;;;18.46;55.24
38780;BME280;29273;49.962;9.768;2022-09-09T01:56:32;99327.53;;;18.50;53.49
38780;BME280;29273;49.962;9.768;2022-09-09T02:04:21;99332.34;;;18.48;54.09
38780;BME280;29273;49.962;9.768;2022-09-09T02:06:53;99336.13;;;18.47;54.28
38780;BME280;29273;49.962;9.768;2022-09-09T02:09:25;99344.44;;;18.45;55.36
38780;BME280;29273;49.962;9.768;2022-09-09T02:12:01;99340.94;;;18.50;54.27
38780;BME280;29273;49.962;9.768;2022-09-09T02:14:47;99346.28;;;18.50;53.81
38780;BME280;29273;49.962;9.768;2022-09-09T02:17:16;99341.50;;;18.47;54.53
38780;BME280;29273;49.962;9.768;2022-09-09T02:20:08;99344.16;;;18.47;54.54
38780;BME280;29273;49.962;9.768;2022-09-09T02:22:50;99335.81;;;18.43;54.52
38780;BME280;29273;49.962;9.768;2022-09-09T02:25:21;99334.75;;;18.44;54.65
38780;BME280;29273;49.962;9.768;2022-09-09T02:27:50;99334.22;;;18.42;54.64
38780;BME280;29273;49.962;9.768;2022-09-09T02:30:17;99329.94;;;18.41;55.05
38780;BME280;29273;49.962;9.768;2022-09-09T02:32:51;99331.28;;;18.44;55.13
38780;BME280;29273;49.962;9.768;2022-09-09T02:35:21;99329.13;;;18.46;55.03
38780;BME280;29273;49.962;9.768;2022-09-09T02:37:51;99330.50;;;18.48;55.12
38780;BME280;29273;49.962;9.768;2022-09-09T02:40:18;99321.09;;;18.46;55.80
38780;BME280;29273;49.962;9.768;2022-09-09T02:42:50;99322.16;;;18.45;55.61
38780;BME280;29273;49.962;9.768;2022-09-09T02:45:19;99325.66;;;18.51;54.96
38780;BME280;29273;49.962;9.768;2022-09-09T02:50:50;99329.94;;;18.52;54.54
38780;BME280;29273;49.962;9.768;2022-09-09T02:53:26;99334.25;;;18.53;55.03
38780;BME280;29273;49.962;9.768;2022-09-09T02:56:04;99335.88;;;18.54;54.36
38780;BME280;29273;49.962;9.768;2022-09-09T02:58:35;99330.22;;;18.50;55.53
38780;BME280;29273;49.962;9.768;2022-09-09T03:01:04;99323.50;;;18.47;55.52
38780;BME280;29273;49.962;9.768;2022-09-09T03:03:31;99325.13;;;18.48;55.38
38780;BME280;29273;49.962;9.768;2022-09-09T03:05:59;99336.13;;;18.47;55.49
38780;BME280;29273;49.962;9.768;2022-09-09T03:08:26;99331.81;;;18.46;55.67
38780;BME280;29273;49.962;9.768;2022-09-09T03:10:58;99335.56;;;18.50;54.28
38780;BME280;29273;49.962;9.768;2022-09-09T03:13:27;99339.59;;;18.42;55.69
38780;BME280;29273;49.962;9.768;2022-09-09T03:15:53;99334.50;;;18.41;55.65
38780;BME280;29273;49.962;9.768;2022-09-09T03:18:20;99337.44;;;18.39;55.98
38780;BME280;29273;49.962;9.768;2022-09-09T03:20:49;99343.84;;;18.38;56.08
38780;BME280;29273;49.962;9.768;2022-09-09T03:23:17;99341.44;;;18.37;56.14
38780;BME280;29273;49.962;9.768;2022-09-09T03:25:47;99341.75;;;18.40;54.81
38780;BME280;29273;49.962;9.768;2022-09-09T03:28:15;99342.25;;;18.32;56.27
38780;BME280;29273;49.962;9.768;2022-09-09T03:30:41;99338.22;;;18.29;56.28
38780;BME280;29273;49.962;9.768;2022-09-09T03:33:08;99324.00;;;18.29;56.26
38780;BME280;29273;49.962;9.768;2022-09-09T03:35:33;99319.97;;;18.26;56.35
38780;BME280;29273;49.962;9.768;2022-09-09T03:38:02;99324.53;;;18.26;56.09
38780;BME280;29273;49.962;9.768;2022-09-09T03:40:30;99323.75;;;18.25;56.18
38780;BME280;29273;49.962;9.768;2022-09-09T03:42:56;99326.41;;;18.25;56.20
38780;BME280;29273;49.962;9.768;2022-09-09T03:45:21;99324.00;;;18.24;56.34
38780;BME280;29273;49.962;9.768;2022-09-09T03:47:47;99319.19;;;18.26;56.31
38780;BME280;29273;49.962;9.768;2022-09-09T03:50:13;99320.81;;;18.27;56.25
38780;BME280;29273;49.962;9.768;2022-09-09T03:52:44;99311.94;;;18.26;56.42
38780;BME280;29273;49.962;9.768;2022-09-09T03:55:16;99305.78;;;18.26;56.36
38780;BME280;29273;49.962;9.768;2022-09-09T03:57:41;99314.63;;;18.26;56.44
38780;BME280;29273;49.962;9.768;2022-09-09T04:00:09;99313.56;;;18.27;56.10
38780;BME280;29273;49.962;9.768;2022-09-09T04:02:49;99308.47;;;18.26;56.08
38780;BME280;29273;49.962;9.768;2022-09-09T04:05:16;99316.50;;;18.26;56.26
38780;BME280;29273;49.962;9.768;2022-09-09T04:07:43;99315.69;;;18.25;56.33
38780;BME280;29273;49.962;9.768;2022-09-09T04:10:09;99309.50;;;18.25;56.39
38780;BME280;29273;49.962;9.768;2022-09-09T04:12:36;99309.50;;;18.25;56.59
38780;BME280;29273;49.962;9.768;2022-09-09T04:15:02;99310.03;;;18.22;56.33
38780;BME280;29273;49.962;9.768;2022-09-09T04:17:29;99316.22;;;18.22;56.58
38780;BME280;29273;49.962;9.768;2022-09-09T04:19:55;99310.34;;;18.20;56.72
38780;BME280;29273;49.962;9.768;2022-09-09T04:22:22;99310.34;;;18.20;56.93
38780;BME280;29273;49.962;9.768;2022-09-09T04:24:48;99313.28;;;18.19;56.65
38780;BME280;29273;49.962;9.768;2022-09-09T04:27:14;99313.53;;;18.17;57.12
38780;BME280;29273;49.962;9.768;2022-09-09T04:29:40;99308.19;;;18.17;57.10
38780;BME280;29273;49.962;9.768;2022-09-09T04:32:06;99316.22;;;18.17;56.91
38780;BME280;29273;49.962;9.768;2022-09-09T04:34:32;99313.78;;;18.16;56.58
38780;BME280;29273;49.962;9.768;2022-09-09T04:36:58;99324.25;;;18.17;56.77
38780;BME280;29273;49.962;9.768;2022-09-09T04:39:25;99311.63;;;18.12;56.80
38780;BME280;29273;49.962;9.768;2022-09-09T04:41:51;99318.88;;;18.12;56.71
38780;BME280;29273;49.962;9.768;2022-09-09T04:44:16;99315.63;;;18.10;56.75
38780;BME280;29273;49.962;9.768;2022-09-09T04:46:42;99318.56;;;18.08;56.78
38780;BME280;29273;49.962;9.768;2022-09-09T04:49:07;99323.94;;;18.08;56.52
38780;BME280;29273;49.962;9.768;2022-09-09T04:51:33;99325.28;;;18.06;56.83
38780;BME280;29273;49.962;9.768;2022-09-09T04:53:59;99323.66;;;18.05;56.66
38780;BME280;29273;49.962;9.768;2022-09-09T04:56:24;99317.50;;;18.04;56.42
38780;BME280;29273;49.962;9.768;2022-09-09T04:58:55;99321.25;;;18.03;56.65
38780;BME280;29273;49.962;9.768;2022-09-09T05:01:25;99328.75;;;18.01;56.80
38780;BME280;29273;49.962;9.768;2022-09-09T05:03:52;99322.59;;;18.01;56.69
38780;BME280;29273;49.962;9.768;2022-09-09T05:06:22;99323.38;;;18.01;56.20
38780;BME280;29273;49.962;9.768;2022-09-09T05:08:51;99328.47;;;17.98;56.82
38780;BME280;29273;49.962;9.768;2022-09-09T05:11:21;99336.50;;;17.98;56.49
38780;BME280;29273;49.962;9.768;2022-09-09T05:13:53;99336.75;;;17.96;56.72
38780;BME280;29273;49.962;9.768;2022-09-09T05:16:20;99342.91;;;17.97;56.33
38780;BME280;29273;49.962;9.768;2022-09-09T05:18:46;99338.66;;;17.96;56.09
38780;BME280;29273;49.962;9.768;2022-09-09T05:21:13;99344.00;;;17.96;56.01
38780;BME280;29273;49.962;9.768;2022-09-09T05:23:39;99342.09;;;17.91;56.47
38780;BME280;29273;49.962;9.768;2022-09-09T05:26:07;99346.66;;;17.90;56.14
38780;BME280;29273;49.962;9.768;2022-09-09T05:28:35;99347.41;;;17.86;56.42
38780;BME280;29273;49.962;9.768;2022-09-09T05:31:06;99355.22;;;17.87;56.53
38780;BME280;29273;49.962;9.768;2022-09-09T05:33:35;99351.41;;;17.83;56.97
38780;BME280;29273;49.962;9.768;2022-09-09T05:36:05;99353.34;;;17.88;56.00
38780;BME280;29273;49.962;9.768;2022-09-09T05:38:32;99361.56;;;17.81;57.91
38780;BME280;29273;49.962;9.768;2022-09-09T05:40:59;99369.09;;;17.84;57.75
38780;BME280;29273;49.962;9.768;2022-09-09T05:43:26;99364.28;;;17.86;57.26
38780;BME280;29273;49.962;9.768;2022-09-09T05:46:03;99364.31;;;17.91;56.36
38780;BME280;29273;49.962;9.768;2022-09-09T05:48:35;99364.03;;;17.88;57.13
38780;BME280;29273;49.962;9.768;2022-09-09T05:51:01;99365.94;;;17.87;58.18
38780;BME280;29273;49.962;9.768;2022-09-09T05:53:28;99372.88;;;17.88;58.14
38780;BME280;29273;49.962;9.768;2022-09-09T05:55:59;99373.44;;;17.90;57.25
38780;BME280;29273;49.962;9.768;2022-09-09T05:58:26;99376.94;;;17.91;57.97
38780;BME280;29273;49.962;9.768;2022-09-09T06:00:52;99382.28;;;17.91;57.76
38780;BME280;29273;49.962;9.768;2022-09-09T06:03:17;99378.56;;;17.92;57.64
38780;BME280;29273;49.962;9.768;2022-09-09T06:05:43;99376.41;;;17.94;57.95
38780;BME280;29273;49.962;9.768;2022-09-09T06:08:08;99377.22;;;17.94;57.92
38780;BME280;29273;49.962;9.768;2022-09-09T06:10:34;99382.03;;;17.98;58.44
38780;BME280;29273;49.962;9.768;2022-09-09T06:12:59;99372.69;;;18.00;58.21
38780;BME280;29273;49.962;9.768;2022-09-09T06:15:25;99379.38;;;18.03;58.76
38780;BME280;29273;49.962;9.768;2022-09-09T06:17:55;99374.06;;;18.13;57.53
38780;BME280;29273;49.962;9.768;2022-09-09T06:20:21;99381.56;;;18.11;58.95
38780;BME280;29273;49.962;9.768;2022-09-09T06:22:47;99382.66;;;18.15;58.87
38780;BME280;29273;49.962;9.768;2022-09-09T06:25:14;99383.75;;;18.19;58.85
38780;BME280;29273;49.962;9.768;2022-09-09T06:27:39;99383.22;;;18.22;59.34
38780;BME280;29273;49.962;9.768;2022-09-09T06:30:06;99386.72;;;18.28;59.20
38780;BME280;29273;49.962;9.768;2022-09-09T06:32:32;99382.47;;;18.32;59.48
38780;BME280;29273;49.962;9.768;2022-09-09T06:34:59;99383.28;;;18.38;59.01
38780;BME280;29273;49.962;9.768;2022-09-09T06:37:26;99378.72;;;18.43;58.60
38780;BME280;29273;49.962;9.768;2022-09-09T06:39:53;99382.25;;;18.49;58.40
38780;BME280;29273;49.962;9.768;2022-09-09T06:42:20;99370.16;;;18.57;57.69
38780;BME280;29273;49.962;9.768;2022-09-09T06:44:48;99377.44;;;18.61;58.88
38780;BME280;29273;49.962;9.768;2022-09-09T06:47:28;99371.00;;;18.67;57.09
38780;BME280;29273;49.962;9.768;2022-09-09T06:49:56;99372.63;;;18.74;57.43
38780;BME280;29273;49.962;9.768;2022-09-09T06:52:22;99377.44;;;18.77;56.66
38780;BME280;29273;49.962;9.768;2022-09-09T06:54:49;99380.44;;;18.80;56.80
38780;BME280;29273;49.962;9.768;2022-09-09T06:57:16;99380.72;;;18.84;56.54
38780;BME280;29273;49.962;9.768;2022-09-09T06:59:41;99380.47;;;18.85;55.94
38780;BME280;29273;49.962;9.768;2022-09-09T07:02:07;99382.88;;;18.87;55.45
38780;BME280;29273;49.962;9.768;2022-09-09T07:04:33;99379.66;;;18.90;55.60
38780;BME280;29273;49.962;9.768;2022-09-09T07:06:59;99379.09;;;18.93;55.67
38780;BME280;29273;49.962;9.768;2022-09-09T07:09:25;99384.47;;;18.98;56.17
38780;BME280;29273;49.962;9.768;2022-09-09T07:11:52;99382.09;;;19.02;55.85
38780;BME280;29273;49.962;9.768;2022-09-09T07:14:20;99379.94;;;19.04;55.26
38780;BME280;29273;49.962;9.768;2022-09-09T07:16:51;99383.16;;;19.06;55.14
38780;BME280;29273;49.962;9.768;2022-09-09T07:19:17;99393.09;;;19.11;55.25
38780;BME280;29273;49.962;9.768;2022-09-09T07:21:45;99384.25;;;19.15;55.58
38780;BME280;29273;49.962;9.768;2022-09-09T07:24:13;99388.78;;;19.20;55.72
38780;BME280;29273;49.962;9.768;2022-09-09T07:26:40;99385.28;;;19.25;55.30
38780;BME280;29273;49.962;9.768;2022-09-09T07:29:07;99389.59;;;19.31;55.09
38780;BME280;29273;49.962;9.768;2022-09-09T07:31:34;99390.13;;;19.38;55.00
38780;BME280;29273;49.962;9.768;2022-09-09T07:34:03;99391.22;;;19.42;55.16
38780;BME280;29273;49.962;9.768;2022-09-09T07:36:32;99392.25;;;19.51;55.17
38780;BME280;29273;49.962;9.768;2022-09-09T07:39:01;99385.28;;;19.55;54.98
38780;BME280;29273;49.962;9.768;2022-09-09T07:41:31;99380.41;;;19.63;54.97
38780;BME280;29273;49.962;9.768;2022-09-09T07:43:59;99394.38;;;19.65;54.34
38780;BME280;29273;49.962;9.768;2022-09-09T07:46:26;99394.63;;;19.68;54.04
38780;BME280;29273;49.962;9.768;2022-09-09T07:48:54;99396.00;;;19.76;54.36
38780;BME280;29273;49.962;9.768;2022-09-09T07:51:31;99386.34;;;19.80;53.96
38780;BME280;29273;49.962;9.768;2022-09-09T07:54:00;99391.41;;;19.82;54.29
38780;BME280;29273;49.962;9.768;2022-09-09T07:56:28;99394.66;;;19.84;54.58
38780;BME280;29273;49.962;9.768;2022-09-09T07:58:55;99390.31;;;19.88;54.63
38780;BME280;29273;49.962;9.768;2022-09-09T08:01:24;99397.84;;;19.91;54.23
38780;BME280;29273;49.962;9.768;2022-09-09T08:04:02;99410.19;;;20.02;54.53
38780;BME280;29273;49.962;9.768;2022-09-09T08:06:32;99402.63;;;20.04;54.08
38780;BME280;29273;49.962;9.768;2022-09-09T08:08:59;99401.56;;;20.05;53.68
38780;BME280;29273;49.962;9.768;2022-09-09T08:11:27;99406.38;;;20.13;53.94
38780;BME280;29273;49.962;9.768;2022-09-09T08:13:54;99417.38;;;20.17;53.78
38780;BME280;29273;49.962;9.768;2022-09-09T08:16:22;99416.56;;;20.22;53.84
38780;BME280;29273;49.962;9.768;2022-09-09T08:18:50;99413.31;;;20.25;53.61
38780;BME280;29273;49.962;9.768;2022-09-09T08:21:19;99421.91;;;20.32;53.91
38780;BME280;29273;49.962;9.768;2022-09-09T08:23:47;99423.22;;;20.34;53.53
38780;BME280;29273;49.962;9.768;2022-09-09T08:26:16;99418.06;;;20.43;53.75
38780;BME280;29273;49.962;9.768;2022-09-09T08:28:42;99424.28;;;20.44;53.23
38780;BME280;29273;49.962;9.768;2022-09-09T08:31:20;99430.13;;;20.51;53.11
38780;BME280;29273;49.962;9.768;2022-09-09T08:33:47;99426.94;;;20.49;52.77
38780;BME280;29273;49.962;9.768;2022-09-09T08:36:16;99432.53;;;20.58;53.32
38780;BME280;29273;49.962;9.768;2022-09-09T08:38:43;99435.22;;;20.58;53.04
38780;BME280;29273;49.962;9.768;2022-09-09T08:52:24;99413.19;;;21.00;53.38
38780;BME280;29273;49.962;9.768;2022-09-09T08:54:51;99411.03;;;21.02;52.69
38780;BME280;29273;49.962;9.768;2022-09-09T08:57:26;99418.75;;;21.14;52.88
38780;BME280;29273;49.962;9.768;2022-09-09T08:59:53;99419.81;;;21.13;51.91
38780;BME280;29273;49.962;9.768;2022-09-09T09:03:03;99407.41;;;21.17;53.04
38780;BME280;29273;49.962;9.768;2022-09-09T09:05:41;99417.06;;;21.23;52.03
38780;BME280;29273;49.962;9.768;2022-09-09T09:08:24;99416.69;;;21.35;52.31
38780;BME280;29273;49.962;9.768;2022-09-09T09:10:53;99416.09;;;21.09;51.42
38780;BME280;29273;49.962;9.768;2022-09-09T09:13:38;99420.75;;;21.33;49.88
38780;BME280;29273;49.962;9.768;2022-09-09T09:16:21;99415.03;;;21.39;51.28
38780;BME280;29273;49.962;9.768;2022-09-09T09:18:51;99412.34;;;21.39;50.51
38780;BME280;29273;49.962;9.768;2022-09-09T09:21:32;99413.09;;;21.50;51.49
38780;BME280;29273;49.962;9.768;2022-09-09T09:24:00;99405.81;;;21.51;51.05
38780;BME280;29273;49.962;9.768;2022-09-09T09:26:34;99402.16;;;21.66;51.47
38780;BME280;29273;49.962;9.768;2022-09-09T09:29:10;99402.84;;;21.76;51.36
38780;BME280;29273;49.962;9.768;2022-09-09T09:31:37;99399.88;;;21.78;49.61
38780;BME280;29273;49.962;9.768;2022-09-09T09:34:03;99394.69;;;21.87;48.84
38780;BME280;29273;49.962;9.768;2022-09-09T09:36:41;99399.59;;;22.04;49.97
38780;BME280;29273;49.962;9.768;2022-09-09T09:39:21;99388.97;;;21.88;51.33
38780;BME280;29273;49.962;9.768;2022-09-09T09:41:48;99387.34;;;22.11;48.82
38780;BME280;29273;49.962;9.768;2022-09-09T09:44:30;99381.53;;;22.28;48.74
38780;BME280;29273;49.962;9.768;2022-09-09T09:47:12;99377.09;;;22.38;49.33
38780;BME280;29273;49.962;9.768;2022-09-09T09:49:51;99377.84;;;22.43;48.78
38780;BME280;29273;49.962;9.768;2022-09-09T09:52:22;99370.47;;;22.49;48.62
38780;BME280;29273;49.962;9.768;2022-09-09T09:54:48;99371.53;;;22.48;46.44
38780;BME280;29273;49.962;9.768;2022-09-09T09:57:16;99369.38;;;22.50;46.20
38780;BME280;29273;49.962;9.768;2022-09-09T09:59:45;99378.19;;;22.56;47.09
38780;BME280;29273;49.962;9.768;2022-09-09T10:02:24;99372.94;;;22.64;47.99
38780;BME280;29273;49.962;9.768;2022-09-09T10:05:21;99376.97;;;22.67;48.38
38780;BME280;29273;49.962;9.768;2022-09-09T10:13:36;99366.03;;;22.91;47.94
38780;BME280;29273;49.962;9.768;2022-09-09T10:19:15;99360.66;;;23.10;46.99
38780;BME280;29273;49.962;9.768;2022-09-09T10:30:16;99365.69;;;23.17;44.65
38780;BME280;29273;49.962;9.768;2022-09-09T10:33:16;99364.34;;;23.14;43.55
38780;BME280;29273;49.962;9.768;2022-09-09T10:36:19;99363.19;;;23.01;43.89
38780;BME280;29273;49.962;9.768;2022-09-09T10:39:33;99368.75;;;22.91;44.01
38780;BME280;29273;49.962;9.768;2022-09-09T10:41:42;99375.38;;;22.99;44.99
38780;BME280;29273;49.962;9.768;2022-09-09T10:52:31;99396.84;;;22.71;44.58
38780;BME280;29273;49.962;9.768;2022-09-09T10:55:11;99392.88;;;22.68;45.58
38780;BME280;29273;49.962;9.768;2022-09-09T10:57:47;99389.72;;;22.61;44.84
38780;BME280;29273;49.962;9.768;2022-09-09T11:00:24;99389.78;;;22.56;45.54
38780;BME280;29273;49.962;9.768;2022-09-09T11:02:56;99390.72;;;22.46;44.86
38780;BME280;29273;49.962;9.768;2022-09-09T11:05:36;99392.69;;;22.41;45.36
38780;BME280;29273;49.962;9.768;2022-09-09T11:08:35;99389.31;;;22.30;45.91
38780;BME280;29273;49.962;9.768;2022-09-09T11:11:04;99387.66;;;22.34;46.38
38780;BME280;29273;49.962;9.768;2022-09-09T11:16:49;99391.91;;;22.40;46.43
38780;BME280;29273;49.962;9.768;2022-09-09T11:19:30;99386.34;;;22.50;46.85
38780;BME280;29273;49.962;9.768;2022-09-09T11:22:05;99389.78;;;22.56;46.66
38780;BME280;29273;49.962;9.768;2022-09-09T11:24:45;99386.63;;;22.68;46.86
38780;BME280;29273;49.962;9.768;2022-09-09T11:27:59;99381.41;;;22.77;46.56
38780;BME280;29273;49.962;9.768;2022-09-09T11:30:34;99377.22;;;22.84;46.17
38780;BME280;29273;49.962;9.768;2022-09-09T11:36:07;99373.94;;;23.06;44.40
38780;BME280;29273;49.962;9.768;2022-09-09T11:38:51;99364.06;;;23.16;45.14
38780;BME280;29273;49.962;9.768;2022-09-09T11:41:19;99362.88;;;23.22;43.38
38780;BME280;29273;49.962;9.768;2022-09-09T11:43:46;99370.59;;;23.28;42.16
38780;BME280;29273;49.962;9.768;2022-09-09T11:46:15;99367.13;;;23.42;43.12
38780;BME280;29273;49.962;9.768;2022-09-09T11:48:44;99372.94;;;23.49;43.38
38780;BME280;29273;49.962;9.768;2022-09-09T11:51:27;99368.94;;;23.60;44.72
38780;BME280;29273;49.962;9.768;2022-09-09T11:53:55;99370.75;;;23.65;43.14
38780;BME280;29273;49.962;9.768;2022-09-09T12:06:44;99375.19;;;23.75;44.58
38780;BME280;29273;49.962;9.768;2022-09-09T12:09:41;99381.47;;;23.70;45.35
38780;BME280;29273;49.962;9.768;2022-09-09T12:17:24;99375.78;;;23.72;44.73
38780;BME280;29273;49.962;9.768;2022-09-09T12:20:19;99369.16;;;23.78;45.37
38780;BME280;29273;49.962;9.768;2022-09-09T12:23:13;99368.28;;;23.82;45.19
38780;BME280;29273;49.962;9.768;2022-09-09T12:25:48;99363.59;;;23.88;45.45
38780;BME280;29273;49.962;9.768;2022-09-09T12:28:19;99360.88;;;23.88;44.18
38780;BME280;29273;49.962;9.768;2022-09-09T12:31:11;99357.97;;;23.98;44.56
38780;BME280;29273;49.962;9.768;2022-09-09T12:33:44;99348.25;;;23.97;41.42
38780;BME280;29273;49.962;9.768;2022-09-09T12:36:29;99358.84;;;24.08;42.20
38780;BME280;29273;49.962;9.768;2022-09-09T12:38:59;99359.44;;;24.05;39.47
38780;BME280;29273;49.962;9.768;2022-09-09T12:41:36;99348.84;;;24.08;39.52
38780;BME280;29273;49.962;9.768;2022-09-09T12:44:09;99344.81;;;24.19;41.64
38780;BME280;29273;49.962;9.768;2022-09-09T12:46:41;99337.69;;;24.24;41.74
38780;BME280;29273;49.962;9.768;2022-09-09T12:49:26;99328.78;;;24.23;40.67
38780;BME280;29273;49.962;9.768;2022-09-09T12:51:54;99331.50;;;24.23;39.69
38780;BME280;29273;49.962;9.768;2022-09-09T12:54:22;99327.84;;;24.28;40.45
38780;BME280;29273;49.962;9.768;2022-09-09T12:56:48;99336.16;;;24.31;39.90
38780;BME280;29273;49.962;9.768;2022-09-09T12:59:27;99325.13;;;24.42;41.28
38780;BME280;29273;49.962;9.768;2022-09-09T13:01:59;99323.63;;;24.35;39.46
38780;BME280;29273;49.962;9.768;2022-09-09T13:04:25;99326.81;;;24.37;39.52
38780;BME280;29273;49.962;9.768;2022-09-09T13:06:51;99324.13;;;24.37;39.17
38780;BME280;29273;49.962;9.768;2022-09-09T13:09:18;99326.53;;;24.39;39.55
38780;BME280;29273;49.962;9.768;2022-09-09T13:11:50;99319.91;;;24.45;40.91
38780;BME280;29273;49.962;9.768;2022-09-09T13:14:31;99324.13;;;24.37;39.95
38780;BME280;29273;49.962;9.768;2022-09-09T13:17:01;99320.94;;;24.35;40.24
38780;BME280;29273;49.962;9.768;2022-09-09T13:19:36;99320.69;;;24.46;41.18
38780;BME280;29273;49.962;9.768;2022-09-09T13:22:36;99318.09;;;24.41;41.57
38780;BME280;29273;49.962;9.768;2022-09-09T13:25:13;99300.78;;;24.42;39.07
38780;BME280;29273;49.962;9.768;2022-09-09T13:27:52;99301.13;;;24.49;40.78
38780;BME280;29273;49.962;9.768;2022-09-09T13:30:33;99305.13;;;24.51;41.12
38780;BME280;29273;49.962;9.768;2022-09-09T13:35:56;99306.56;;;24.49;40.29
38780;BME280;29273;49.962;9.768;2022-09-09T13:38:27;99305.06;;;24.43;39.59
38780;BME280;29273;49.962;9.768;2022-09-09T13:40:56;99302.34;;;24.43;39.89
38780;BME280;29273;49.962;9.768;2022-09-09T13:43:23;99314.59;;;24.40;38.96
38780;BME280;29273;49.962;9.768;2022-09-09T13:48:20;99298.19;;;24.36;38.49
38780;BME280;29273;49.962;9.768;2022-09-09T13:51:22;99308.69;;;24.38;40.27
38780;BME280;29273;49.962;9.768;2022-09-09T13:53:50;99303.38;;;24.33;38.48
38780;BME280;29273;49.962;9.768;2022-09-09T13:56:17;99311.50;;;24.33;38.30
38780;BME280;29273;49.962;9.768;2022-09-09T13:58:43;99297.97;;;24.33;38.60
38780;BME280;29273;49.962;9.768;2022-09-09T14:01:09;99298.78;;;24.33;38.69
38780;BME280;29273;49.962;9.768;2022-09-09T14:03:36;99297.66;;;24.34;38.43
38780;BME280;29273;49.962;9.768;2022-09-09T14:06:02;99309.31;;;24.35;38.33
38780;BME280;29273;49.962;9.768;2022-09-09T14:08:28;99317.13;;;24.36;38.01
38780;BME280;29273;49.962;9.768;2022-09-09T14:11:03;99324.91;;;24.38;37.63
38780;BME280;29273;49.962;9.768;2022-09-09T14:13:28;99319.84;;;24.36;37.40
38780;BME280;29273;49.962;9.768;2022-09-09T14:15:54;99313.59;;;24.36;37.65
38780;BME280;29273;49.962;9.768;2022-09-09T14:18:19;99325.84;;;24.33;37.55
38780;BME280;29273;49.962;9.768;2022-09-09T14:20:45;99319.44;;;24.29;37.18
38780;BME280;29273;49.962;9.768;2022-09-09T14:23:11;99325.97;;;24.28;37.56
38780;BME280;29273;49.962;9.768;2022-09-09T14:25:40;99333.25;;;24.28;37.91
38780;BME280;29273;49.962;9.768;2022-09-09T14:28:08;99340.09;;;24.25;37.74
38780;BME280;29273;49.962;9.768;2022-09-09T14:30:34;99340.81;;;24.17;37.49
38780;BME280;29273;49.962;9.768;2022-09-09T14:32:59;99348.53;;;24.10;37.20
38780;BME280;29273;49.962;9.768;2022-09-09T14:35:25;99360.56;;;24.04;37.67
38780;BME280;29273;49.962;9.768;2022-09-09T14:37:50;99368.28;;;23.96;39.01
38780;BME280;29273;49.962;9.768;2022-09-09T14:40:16;99382.53;;;23.88;42.29
38780;BME280;29273;49.962;9.768;2022-09-09T14:42:42;99366.44;;;23.78;42.71
38780;BME280;29273;49.962;9.768;2022-09-09T14:45:08;99364.75;;;23.68;43.33
38780;BME280;29273;49.962;9.768;2022-09-09T14:47:33;99364.94;;;23.58;44.83
38780;BME280;29273;49.962;9.768;2022-09-09T14:49:59;99354.59;;;23.46;45.74
38780;BME280;29273;49.962;9.768;2022-09-09T14:52:26;99351.50;;;23.39;46.59
38780;BME280;29273;49.962;9.768;2022-09-09T14:54:51;99344.88;;;23.31;45.81
38780;BME280;29273;49.962;9.768;2022-09-09T14:57:17;99344.47;;;23.24;45.34
38780;BME280;29273;49.962;9.768;2022-09-09T14:59:42;99334.06;;;23.17;44.05
38780;BME280;29273;49.962;9.768;2022-09-09T15:02:10;99332.75;;;23.15;44.96